Time;durP1;ratioP1;P1;durP2;ratioP2;P2;SDS_P1;SDS_P2;PMS_P1;PMS_P2;Temp;Humidity;BMP_temperature;BMP_pressure;BME280_temperature;BME280_humidity;BME280_pressure;Samples;Min_cycle;Max_cycle;Signal;HPM_P1;HPM_P2
2023/04/17 00:01:50;;;;;;;77.18;41.28;;;;;;;;;;5078456;28;20548;-86
2023/04/17 00:04:16;;;;;;;72.70;42.17;;;;;;;;;;5097018;28;20173;-86
2023/04/17 00:06:43;;;;;;;75.55;44.42;;;;;;;;;;5097348;28;20258;-85
2023/04/17 00:09:09;;;;;;;73.00;42.47;;;;;;;;;;5062513;28;20180;-86
2023/04/17 00:11:35;;;;;;;73.35;40.13;;;;;;;;;;5078846;28;20184;-86
2023/04/17 00:14:01;;;;;;;84.05;45.95;;;;;;;;;;5078420;28;20203;-85
2023/04/17 00:16:27;;;;;;;76.40;44.42;;;;;;;;;;5096352;28;20172;-86
2023/04/17 00:18:54;;;;;;;75.35;44.10;;;;;;;;;;5078667;28;20181;-86
2023/04/17 00:21:20;;;;;;;76.53;43.45;;;;;;;;;;5061303;28;20180;-86
2023/04/17 00:23:46;;;;;;;78.90;42.92;;;;;;;;;;5078156;28;20235;-86
2023/04/17 00:26:12;;;;;;;74.20;43.70;;;;;;;;;;5077540;28;20192;-86
2023/04/17 00:28:38;;;;;;;78.75;44.92;;;;;;;;;;5096287;28;20729;-86
2023/04/17 00:31:04;;;;;;;73.15;42.35;;;;;;;;;;5078607;28;20176;-85
2023/04/17 00:33:33;;;;;;;88.68;45.20;;;;;;;;;;5100310;28;20711;-86
2023/04/17 00:35:59;;;;;;;79.63;46.75;;;;;;;;;;5078373;28;20180;-87
2023/04/17 00:38:25;;;;;;;83.13;44.88;;;;;;;;;;5061012;28;20180;-87
2023/04/17 00:40:51;;;;;;;84.43;44.63;;;;;;;;;;5078033;28;20191;-87
2023/04/17 00:43:17;;;;;;;82.93;44.13;;;;;;;;;;5095622;28;20650;-87
2023/04/17 00:45:46;;;;;;;76.90;45.22;;;;;;;;;;5061073;28;20184;-87
2023/04/17 00:48:14;;;;;;;90.05;44.97;;;;;;;;;;5076986;28;20179;-88
2023/04/17 00:50:41;;;;;;;75.88;43.10;;;;;;;;;;5077249;28;20231;-87
2023/04/17 00:53:07;;;;;;;77.47;43.45;;;;;;;;;;5077850;28;20168;-87
2023/04/17 00:55:34;;;;;;;79.35;44.30;;;;;;;;;;5095434;28;20215;-87
2023/04/17 00:58:01;;;;;;;63.75;40.25;;;;;;;;;;5077780;28;20184;-87
2023/04/17 01:00:27;;;;;;;65.35;40.55;;;;;;;;;;5095238;28;20305;-87
2023/04/17 01:02:56;;;;;;;61.65;37.13;;;;;;;;;;5061211;28;20180;-87
2023/04/17 01:05:22;;;;;;;63.55;39.22;;;;;;;;;;5095384;28;20172;-87
2023/04/17 01:07:48;;;;;;;70.78;42.47;;;;;;;;;;5060642;28;20582;-87
2023/04/17 01:10:14;;;;;;;75.35;42.45;;;;;;;;;;5077191;28;20176;-87
2023/04/17 01:12:45;;;;;;;84.10;44.08;;;;;;;;;;5059674;28;20247;-87
2023/04/17 01:15:11;;;;;;;64.80;41.95;;;;;;;;;;5077285;28;20239;-87
2023/04/17 01:17:37;;;;;;;79.45;42.92;;;;;;;;;;5076885;28;20543;-87
2023/04/17 01:20:09;;;;;;;68.43;41.10;;;;;;;;;;5077106;28;20535;-87
2023/04/17 01:22:35;;;;;;;68.40;42.33;;;;;;;;;;5077998;28;20172;-87
2023/04/17 01:25:01;;;;;;;68.15;42.83;;;;;;;;;;5077088;28;20180;-86
2023/04/17 01:27:27;;;;;;;69.65;43.05;;;;;;;;;;5077353;28;20249;-87
2023/04/17 01:29:53;;;;;;;72.22;44.30;;;;;;;;;;5094764;28;20225;-87
2023/04/17 01:32:20;;;;;;;68.40;43.72;;;;;;;;;;5095168;28;20179;-87
2023/04/17 01:34:46;;;;;;;69.55;41.47;;;;;;;;;;5076823;28;20647;-87
2023/04/17 01:37:12;;;;;;;74.13;46.03;;;;;;;;;;5077076;28;20551;-88
2023/04/17 01:39:38;;;;;;;72.47;44.20;;;;;;;;;;5077022;28;20176;-87
2023/04/17 01:42:04;;;;;;;75.20;44.00;;;;;;;;;;5060429;28;20597;-87
2023/04/17 01:44:30;;;;;;;69.57;43.10;;;;;;;;;;5060073;28;20222;-87
2023/04/17 01:46:56;;;;;;;84.57;47.47;;;;;;;;;;5095030;28;20172;-86
2023/04/17 01:49:22;;;;;;;74.50;45.58;;;;;;;;;;5059452;28;20243;-86
2023/04/17 01:51:48;;;;;;;83.05;46.08;;;;;;;;;;5060649;28;20535;-86
2023/04/17 01:54:14;;;;;;;72.07;45.97;;;;;;;;;;5094757;28;20667;-87
2023/04/17 01:56:41;;;;;;;85.18;46.78;;;;;;;;;;5060208;28;20184;-86
2023/04/17 01:59:07;;;;;;;68.05;43.28;;;;;;;;;;5076153;28;20183;-86
2023/04/17 02:01:35;;;;;;;74.10;40.55;;;;;;;;;;5059515;28;20184;-86
2023/04/17 02:04:01;;;;;;;76.22;43.55;;;;;;;;;;5075718;28;20202;-86
2023/04/17 02:06:27;;;;;;;75.78;44.13;;;;;;;;;;5076397;28;20765;-86
2023/04/17 02:08:53;;;;;;;76.85;45.72;;;;;;;;;;5094295;28;20195;-87
2023/04/17 02:11:19;;;;;;;71.18;42.08;;;;;;;;;;5094102;28;20169;-87
2023/04/17 02:13:45;;;;;;;72.28;44.90;;;;;;;;;;5059623;28;20268;-87
2023/04/17 02:16:11;;;;;;;71.78;43.38;;;;;;;;;;5059510;28;20196;-86
2023/04/17 02:18:39;;;;;;;76.47;44.60;;;;;;;;;;5076647;28;20179;-86
2023/04/17 02:21:05;;;;;;;73.05;46.53;;;;;;;;;;5075964;28;20224;-87
2023/04/17 02:23:31;;;;;;;78.95;46.13;;;;;;;;;;5060644;28;20541;-85
2023/04/17 02:25:57;;;;;;;75.57;44.17;;;;;;;;;;5079671;28;20187;-86
2023/04/17 02:28:23;;;;;;;76.15;46.47;;;;;;;;;;5079270;28;20413;-86
2023/04/17 02:30:49;;;;;;;75.20;42.55;;;;;;;;;;5079911;28;20184;-87
2023/04/17 02:33:15;;;;;;;71.30;45.35;;;;;;;;;;5079287;28;20187;-86
2023/04/17 02:35:41;;;;;;;76.05;45.83;;;;;;;;;;5079559;28;20215;-87
2023/04/17 02:38:07;;;;;;;76.90;43.13;;;;;;;;;;5097751;28;20624;-87
2023/04/17 02:40:33;;;;;;;63.17;42.17;;;;;;;;;;5089363;28;20180;-87
2023/04/17 02:42:59;;;;;;;67.72;41.97;;;;;;;;;;5065839;28;20176;-86
2023/04/17 02:45:25;;;;;;;63.97;42.80;;;;;;;;;;5066023;28;20270;-86
2023/04/17 02:47:51;;;;;;;63.63;41.30;;;;;;;;;;5082432;28;20405;-87
2023/04/17 02:50:17;;;;;;;72.97;45.27;;;;;;;;;;5100022;28;20465;-86
2023/04/17 02:52:43;;;;;;;68.10;43.30;;;;;;;;;;5098673;28;20614;-86
2023/04/17 02:55:09;;;;;;;69.07;44.50;;;;;;;;;;5064700;28;20745;-86
2023/04/17 02:57:35;;;;;;;76.07;45.25;;;;;;;;;;5098333;28;20808;-86
2023/04/17 03:00:06;;;;;;;74.47;44.90;;;;;;;;;;5079805;28;20651;-86
2023/04/17 03:02:32;;;;;;;69.00;45.25;;;;;;;;;;5100227;28;20612;-87
2023/04/17 03:05:00;;;;;;;69.05;41.83;;;;;;;;;;5080303;28;20180;-87
2023/04/17 03:07:27;;;;;;;73.72;44.97;;;;;;;;;;5079501;28;20172;-87
2023/04/17 03:09:56;;;;;;;69.85;43.38;;;;;;;;;;5080634;28;20598;-86
2023/04/17 03:12:22;;;;;;;68.63;44.22;;;;;;;;;;5079611;28;20226;-86
2023/04/17 03:14:48;;;;;;;76.32;44.25;;;;;;;;;;5097648;28;20195;-86
2023/04/17 03:17:14;;;;;;;76.70;46.33;;;;;;;;;;5062816;28;20183;-86
2023/04/17 03:19:40;;;;;;;74.53;45.88;;;;;;;;;;5098065;28;20179;-86
2023/04/17 03:22:06;;;;;;;75.57;47.83;;;;;;;;;;5098146;28;20172;-86
2023/04/17 03:24:33;;;;;;;64.65;44.00;;;;;;;;;;5097331;28;20238;-87
2023/04/17 03:26:59;;;;;;;74.25;45.70;;;;;;;;;;5080102;28;20176;-86
2023/04/17 03:29:25;;;;;;;78.72;47.67;;;;;;;;;;5078466;28;20271;-86
2023/04/17 03:31:52;;;;;;;71.90;43.63;;;;;;;;;;5097539;28;20180;-86
2023/04/17 03:34:18;;;;;;;74.00;47.28;;;;;;;;;;5078563;28;20212;-86
2023/04/17 03:36:45;;;;;;;68.50;44.97;;;;;;;;;;5079297;28;20191;-86
2023/04/17 03:39:11;;;;;;;83.40;45.58;;;;;;;;;;5079739;28;20176;-86
2023/04/17 03:41:37;;;;;;;76.68;45.15;;;;;;;;;;5061698;28;20238;-86
2023/04/17 03:44:04;;;;;;;67.10;43.80;;;;;;;;;;5079368;28;20204;-86
2023/04/17 03:46:30;;;;;;;77.35;48.20;;;;;;;;;;5097108;28;20530;-86
2023/04/17 03:48:56;;;;;;;75.13;47.78;;;;;;;;;;5078858;28;20172;-86
2023/04/17 03:51:22;;;;;;;78.15;47.05;;;;;;;;;;5078896;28;20180;-86
2023/04/17 03:53:48;;;;;;;76.05;44.60;;;;;;;;;;5096960;28;20164;-86
2023/04/17 03:56:14;;;;;;;87.72;48.80;;;;;;;;;;5097639;28;20180;-84
2023/04/17 03:58:40;;;;;;;80.80;47.35;;;;;;;;;;5062282;28;20181;-86
2023/04/17 04:01:09;;;;;;;80.50;50.50;;;;;;;;;;5061644;28;20179;-86
2023/04/17 04:03:36;;;;;;;88.57;50.00;;;;;;;;;;5061854;28;20176;-86
2023/04/17 04:06:02;;;;;;;83.80;48.05;;;;;;;;;;5078682;28;20272;-86
2023/04/17 04:08:28;;;;;;;84.53;53.08;;;;;;;;;;5096569;28;20675;-86
2023/04/17 04:10:54;;;;;;;89.70;51.85;;;;;;;;;;5078415;28;20191;-86
2023/04/17 04:13:20;;;;;;;84.50;50.40;;;;;;;;;;5077754;28;20522;-86
2023/04/17 04:15:46;;;;;;;81.95;51.95;;;;;;;;;;5096563;28;20195;-86
2023/04/17 04:18:12;;;;;;;84.85;51.92;;;;;;;;;;5077966;28;20180;-87
2023/04/17 04:20:38;;;;;;;98.10;55.90;;;;;;;;;;5078031;28;20176;-86
2023/04/17 04:23:05;;;;;;;85.90;52.67;;;;;;;;;;5061958;28;20184;-86
2023/04/17 04:25:32;;;;;;;87.15;56.78;;;;;;;;;;5077799;28;20271;-86
2023/04/17 04:28:00;;;;;;;92.85;51.78;;;;;;;;;;5078816;28;20600;-86
2023/04/17 04:30:29;;;;;;;91.45;54.55;;;;;;;;;;5077628;28;20235;-86
2023/04/17 04:32:55;;;;;;;83.50;51.03;;;;;;;;;;5077135;28;20172;-86
2023/04/17 04:35:24;;;;;;;81.60;50.92;;;;;;;;;;5077250;28;20306;-86
2023/04/17 04:37:53;;;;;;;82.93;52.33;;;;;;;;;;5078106;28;20176;-87
2023/04/17 04:40:20;;;;;;;83.60;50.65;;;;;;;;;;5077097;28;20680;-86
2023/04/17 04:42:48;;;;;;;88.90;53.33;;;;;;;;;;5078263;28;20226;-86
2023/04/17 04:45:15;;;;;;;93.10;53.70;;;;;;;;;;5099050;28;20186;-87
2023/04/17 04:47:41;;;;;;;87.90;50.25;;;;;;;;;;5095246;28;20160;-87
2023/04/17 04:50:07;;;;;;;81.70;49.58;;;;;;;;;;5060872;28;20260;-86
2023/04/17 04:52:33;;;;;;;92.15;52.60;;;;;;;;;;5095963;28;20595;-86
2023/04/17 04:55:00;;;;;;;85.82;51.10;;;;;;;;;;5077459;28;20212;-86
2023/04/17 04:57:26;;;;;;;93.40;50.35;;;;;;;;;;5060189;28;20651;-86
2023/04/17 04:59:52;;;;;;;92.28;54.00;;;;;;;;;;5060386;28;20624;-86
2023/04/17 05:02:18;;;;;;;89.03;53.20;;;;;;;;;;5077368;28;20772;-86
2023/04/17 05:04:44;;;;;;;89.13;51.45;;;;;;;;;;5077576;28;20541;-86
2023/04/17 05:07:10;;;;;;;87.28;52.08;;;;;;;;;;5060788;28;20176;-86
2023/04/17 05:09:36;;;;;;;80.07;53.13;;;;;;;;;;5096698;28;20172;-86
2023/04/17 05:12:02;;;;;;;93.15;54.58;;;;;;;;;;5077111;28;20228;-86
2023/04/17 05:14:28;;;;;;;93.32;50.80;;;;;;;;;;5094046;28;20192;-86
2023/04/17 05:16:54;;;;;;;85.28;51.33;;;;;;;;;;5077218;28;20188;-80
2023/04/17 05:19:21;;;;;;;87.07;50.40;;;;;;;;;;5077806;28;20172;-80
2023/04/17 05:21:47;;;;;;;87.50;52.03;;;;;;;;;;5095894;28;20192;-80
2023/04/17 05:24:13;;;;;;;92.43;50.40;;;;;;;;;;5095260;28;20655;-80
2023/04/17 05:26:39;;;;;;;82.22;50.85;;;;;;;;;;5095575;28;20198;-80
2023/04/17 05:29:05;;;;;;;91.40;51.30;;;;;;;;;;5078138;28;20221;-81
2023/04/17 05:31:31;;;;;;;91.68;53.88;;;;;;;;;;5077444;28;20176;-81
2023/04/17 05:33:57;;;;;;;86.28;50.65;;;;;;;;;;5077707;28;20180;-81
2023/04/17 05:36:24;;;;;;;83.40;48.72;;;;;;;;;;5077424;28;20180;-81
2023/04/17 05:38:49;;;;;;;81.18;50.50;;;;;;;;;;5060929;28;20272;-81
2023/04/17 05:41:16;;;;;;;82.03;48.60;;;;;;;;;;5077644;28;20203;-81
2023/04/17 05:43:42;;;;;;;82.53;50.20;;;;;;;;;;5077388;28;20616;-80
2023/04/17 05:46:08;;;;;;;78.20;48.90;;;;;;;;;;5077585;28;20267;-81
2023/04/17 05:48:34;;;;;;;84.22;52.15;;;;;;;;;;5077086;28;20175;-81
2023/04/17 05:51:00;;;;;;;72.13;49.35;;;;;;;;;;5079749;28;20707;-80
2023/04/17 05:53:26;;;;;;;88.07;50.67;;;;;;;;;;5094765;28;20517;-80
2023/04/17 05:55:52;;;;;;;74.35;49.88;;;;;;;;;;5094933;28;20231;-81
2023/04/17 05:58:18;;;;;;;71.22;46.85;;;;;;;;;;5096199;28;20213;-81
2023/04/17 06:00:44;;;;;;;70.40;45.85;;;;;;;;;;5093341;28;20173;-80
2023/04/17 06:03:10;;;;;;;77.10;48.35;;;;;;;;;;5060892;28;20180;-81
2023/04/17 06:05:36;;;;;;;71.35;46.28;;;;;;;;;;5078806;28;20173;-81
2023/04/17 06:08:02;;;;;;;74.57;45.38;;;;;;;;;;5078971;28;20180;-81
2023/04/17 06:10:28;;;;;;;72.97;48.05;;;;;;;;;;5044683;28;20514;-81
2023/04/17 06:12:55;;;;;;;69.75;42.90;;;;;;;;;;5061473;28;20188;-81
2023/04/17 06:15:21;;;;;;;65.78;43.53;;;;;;;;;;5078879;28;20617;-80
2023/04/17 06:17:47;;;;;;;64.45;43.85;;;;;;;;;;5061287;28;20177;-81
2023/04/17 06:20:13;;;;;;;63.03;41.72;;;;;;;;;;5044280;28;20218;-81
2023/04/17 06:22:39;;;;;;;61.08;41.28;;;;;;;;;;5060685;28;20173;-81
2023/04/17 06:25:06;;;;;;;67.47;42.38;;;;;;;;;;5049916;28;20318;-82
2023/04/17 06:27:33;;;;;;;54.70;39.53;;;;;;;;;;5078243;28;20173;-81
2023/04/17 06:29:59;;;;;;;59.72;39.55;;;;;;;;;;5073108;28;20184;-81
2023/04/17 06:32:25;;;;;;;54.67;37.05;;;;;;;;;;5080908;28;20176;-81
2023/04/17 06:34:51;;;;;;;55.15;40.20;;;;;;;;;;5098938;28;20207;-81
2023/04/17 06:37:17;;;;;;;63.33;40.17;;;;;;;;;;5063616;28;20176;-81
2023/04/17 06:39:43;;;;;;;54.83;37.97;;;;;;;;;;5080490;28;20180;-81
2023/04/17 06:42:09;;;;;;;64.72;40.08;;;;;;;;;;5079911;28;20183;-81
2023/04/17 06:44:35;;;;;;;59.97;39.33;;;;;;;;;;5063720;28;20632;-80
2023/04/17 06:47:02;;;;;;;59.03;41.25;;;;;;;;;;5080765;28;20554;-81
2023/04/17 06:49:31;;;;;;;58.88;41.78;;;;;;;;;;5080085;28;20235;-81
2023/04/17 06:51:58;;;;;;;58.53;41.58;;;;;;;;;;5064289;28;20334;-81
2023/04/17 06:54:24;;;;;;;57.05;40.10;;;;;;;;;;5098075;28;20188;-84
2023/04/17 06:56:50;;;;;;;61.63;41.70;;;;;;;;;;5098467;28;20230;-80
2023/04/17 06:59:17;;;;;;;54.42;39.42;;;;;;;;;;5063621;28;20188;-80
2023/04/17 07:01:43;;;;;;;58.45;41.88;;;;;;;;;;5080254;28;20173;-80
2023/04/17 07:04:09;;;;;;;60.53;41.13;;;;;;;;;;5080136;28;20230;-80
2023/04/17 07:06:35;;;;;;;61.42;41.78;;;;;;;;;;5097795;28;20164;-80
2023/04/17 07:09:02;;;;;;;54.05;40.85;;;;;;;;;;5080123;28;20184;-85
2023/04/17 07:11:28;;;;;;;50.55;36.35;;;;;;;;;;5078903;28;20191;-79
2023/04/17 07:13:54;;;;;;;50.33;38.30;;;;;;;;;;5079650;28;20250;-80
2023/04/17 07:16:21;;;;;;;49.38;35.60;;;;;;;;;;5079923;28;20263;-79
2023/04/17 07:18:48;;;;;;;46.17;36.50;;;;;;;;;;5097533;28;20230;-78
2023/04/17 07:21:14;;;;;;;50.55;39.10;;;;;;;;;;5097957;28;20172;-79
2023/04/17 07:23:40;;;;;;;51.67;36.28;;;;;;;;;;5079739;28;20207;-80
2023/04/17 07:26:06;;;;;;;48.60;34.97;;;;;;;;;;5080092;28;20168;-80
2023/04/17 07:28:33;;;;;;;46.70;36.30;;;;;;;;;;5062371;28;20180;-80
2023/04/17 07:30:59;;;;;;;48.22;34.42;;;;;;;;;;5079546;28;20635;-80
2023/04/17 07:33:25;;;;;;;47.72;32.95;;;;;;;;;;5080100;28;20188;-82
2023/04/17 07:35:52;;;;;;;45.03;31.88;;;;;;;;;;5063030;28;20582;-81
2023/04/17 07:38:18;;;;;;;39.65;30.58;;;;;;;;;;5062388;28;20588;-81
2023/04/17 07:40:44;;;;;;;41.63;31.73;;;;;;;;;;5079142;28;20191;-82
2023/04/17 07:43:10;;;;;;;41.50;31.80;;;;;;;;;;5079634;28;20184;-80
2023/04/17 07:45:37;;;;;;;39.75;29.50;;;;;;;;;;5079039;28;20689;-81
2023/04/17 07:48:03;;;;;;;40.97;30.65;;;;;;;;;;5079181;28;20176;-81
2023/04/17 07:50:29;;;;;;;38.83;29.67;;;;;;;;;;5062064;28;20322;-82
2023/04/17 07:52:55;;;;;;;37.80;28.88;;;;;;;;;;5079335;28;20182;-81
2023/04/17 07:55:21;;;;;;;31.95;25.65;;;;;;;;;;5096661;28;20200;-80
2023/04/17 07:57:50;;;;;;;36.08;27.35;;;;;;;;;;5078877;28;20188;-81
2023/04/17 08:00:16;;;;;;;37.35;27.75;;;;;;;;;;5096726;28;20691;-80
2023/04/17 08:02:42;;;;;;;38.55;26.95;;;;;;;;;;5078499;28;20172;-81
2023/04/17 08:05:09;;;;;;;36.70;28.23;;;;;;;;;;5078648;28;20215;-81
2023/04/17 08:07:35;;;;;;;36.10;26.40;;;;;;;;;;5097203;28;20168;-82
2023/04/17 08:10:01;;;;;;;33.63;25.63;;;;;;;;;;5096677;28;20173;-81
2023/04/17 08:12:27;;;;;;;31.13;26.05;;;;;;;;;;5078676;28;20234;-81
2023/04/17 08:14:53;;;;;;;31.80;24.87;;;;;;;;;;5078719;28;20203;-82
2023/04/17 08:17:21;;;;;;;36.05;25.98;;;;;;;;;;5062350;28;20441;-81
2023/04/17 08:19:52;;;;;;;28.80;24.52;;;;;;;;;;5078794;28;20569;-80
2023/04/17 08:22:20;;;;;;;32.45;25.77;;;;;;;;;;5078505;28;20632;-81
2023/04/17 08:24:47;;;;;;;35.60;24.87;;;;;;;;;;5078462;28;20176;-81
2023/04/17 08:27:14;;;;;;;28.30;24.38;;;;;;;;;;5062299;28;20438;-81
2023/04/17 08:29:40;;;;;;;34.28;26.02;;;;;;;;;;5061835;28;20180;-81
2023/04/17 08:32:06;;;;;;;33.22;26.40;;;;;;;;;;5078127;28;20630;-81
2023/04/17 08:34:32;;;;;;;31.02;25.20;;;;;;;;;;5077903;28;20694;-81
2023/04/17 08:36:59;;;;;;;35.28;25.80;;;;;;;;;;5078194;28;20263;-81
2023/04/17 08:39:26;;;;;;;32.78;27.45;;;;;;;;;;5096413;28;20172;-81
2023/04/17 08:41:56;;;;;;;35.97;26.95;;;;;;;;;;5060888;28;20184;-81
2023/04/17 08:44:22;;;;;;;31.43;26.03;;;;;;;;;;5095846;28;20241;-81
2023/04/17 08:46:49;;;;;;;31.80;25.20;;;;;;;;;;5077651;28;20419;-81
2023/04/17 08:49:15;;;;;;;33.28;24.42;;;;;;;;;;5060888;28;20462;-81
2023/04/17 08:51:42;;;;;;;31.42;24.50;;;;;;;;;;5077561;28;20180;-81
2023/04/17 08:54:08;;;;;;;33.67;24.25;;;;;;;;;;5077782;28;20184;-81
2023/04/17 08:56:34;;;;;;;30.27;25.17;;;;;;;;;;5095945;28;20172;-82
2023/04/17 08:59:00;;;;;;;35.43;26.77;;;;;;;;;;5078147;28;20486;-81
2023/04/17 09:01:27;;;;;;;31.80;25.25;;;;;;;;;;5061118;28;20998;-82
2023/04/17 09:03:53;;;;;;;32.60;26.38;;;;;;;;;;5077716;28;20172;-81
2023/04/17 09:06:19;;;;;;;35.53;27.07;;;;;;;;;;5100482;28;20176;-81
2023/04/17 09:09:03;;;;;;;34.77;25.80;;;;;;;;;;5095698;28;20394;-82
2023/04/17 09:11:30;;;;;;;37.88;24.20;;;;;;;;;;5094769;28;20417;-82
2023/04/17 09:13:56;;;;;;;34.17;25.83;;;;;;;;;;5077030;28;20180;-81
2023/04/17 09:16:24;;;;;;;31.13;23.23;;;;;;;;;;5077795;28;20421;-81
2023/04/17 09:18:50;;;;;;;34.10;25.00;;;;;;;;;;5077912;28;20398;-81
2023/04/17 09:21:17;;;;;;;35.83;25.85;;;;;;;;;;5094889;28;20200;-81
2023/04/17 09:23:48;;;;;;;31.33;24.50;;;;;;;;;;5094674;28;20171;-81
2023/04/17 09:26:14;;;;;;;31.97;24.47;;;;;;;;;;5076861;28;20612;-81
2023/04/17 09:28:42;;;;;;;30.63;24.37;;;;;;;;;;5094299;28;20497;-81
2023/04/17 09:31:17;;;;;;;33.47;26.40;;;;;;;;;;5074860;28;20402;-82
2023/04/17 09:34:03;;;;;;;30.83;25.60;;;;;;;;;;5083595;28;20406;-81
2023/04/17 09:36:37;;;;;;;35.47;26.47;;;;;;;;;;5077599;28;20472;-81
2023/04/17 09:39:03;;;;;;;37.10;29.10;;;;;;;;;;5077487;28;20487;-81
2023/04/17 09:41:35;;;;;;;38.50;29.10;;;;;;;;;;5095701;28;20456;-81
2023/04/17 09:44:04;;;;;;;32.03;26.90;;;;;;;;;;5077494;28;20910;-81
2023/04/17 09:46:36;;;;;;;33.20;27.43;;;;;;;;;;5094969;28;20802;-81
2023/04/17 09:49:06;;;;;;;35.77;28.07;;;;;;;;;;5094664;28;20512;-82
2023/04/17 09:51:33;;;;;;;39.80;27.30;;;;;;;;;;5094974;28;20386;-82
2023/04/17 09:54:04;;;;;;;30.73;25.60;;;;;;;;;;5094622;28;20402;-82
2023/04/17 09:56:32;;;;;;;31.03;23.93;;;;;;;;;;5076993;28;20411;-81
2023/04/17 09:58:59;;;;;;;29.47;25.43;;;;;;;;;;5060586;28;20442;-81
2023/04/17 10:01:26;;;;;;;35.03;25.10;;;;;;;;;;5076993;28;20418;-81
2023/04/17 10:03:52;;;;;;;26.93;22.50;;;;;;;;;;5058650;28;20908;-81
2023/04/17 10:06:18;;;;;;;28.20;25.10;;;;;;;;;;5075154;28;20446;-81
2023/04/17 10:08:45;;;;;;;34.10;25.03;;;;;;;;;;5095572;28;20404;-81
2023/04/17 10:11:11;;;;;;;26.10;23.10;;;;;;;;;;5095571;28;20426;-84
2023/04/17 10:13:37;;;;;;;27.03;18.73;;;;;;;;;;5094325;28;20377;-85
2023/04/17 10:16:04;;;;;;;19.63;16.00;;;;;;;;;;5076671;28;20458;-85
2023/04/17 10:18:31;;;;;;;23.63;17.13;;;;;;;;;;5059723;28;20429;-85
2023/04/17 10:21:17;;;;;;;21.47;17.40;;;;;;;;;;5076525;28;20415;-84
2023/04/17 10:23:43;;;;;;;28.87;18.70;;;;;;;;;;5094136;28;20365;-84
2023/04/17 10:26:25;;;;;;;21.33;17.07;;;;;;;;;;5077054;28;20727;-85
2023/04/17 10:28:52;;;;;;;20.77;16.97;;;;;;;;;;5094401;28;20563;-83
2023/04/17 10:31:18;;;;;;;18.90;16.87;;;;;;;;;;5077559;28;20381;-84
2023/04/17 10:33:51;;;;;;;19.87;16.00;;;;;;;;;;5094388;28;20472;-86
2023/04/17 10:36:36;;;;;;;18.17;14.50;;;;;;;;;;5093939;28;20485;-85
2023/04/17 10:39:15;;;;;;;14.73;12.43;;;;;;;;;;5075079;28;20410;-85
2023/04/17 10:42:00;;;;;;;17.53;13.77;;;;;;;;;;5093601;28;20397;-86
2023/04/17 10:44:27;;;;;;;15.03;11.93;;;;;;;;;;5077354;28;20392;-84
2023/04/17 10:46:53;;;;;;;14.13;12.63;;;;;;;;;;5098312;28;20397;-84
2023/04/17 10:49:22;;;;;;;15.77;11.77;;;;;;;;;;5097267;28;20466;-83
2023/04/17 10:51:48;;;;;;;12.43;11.17;;;;;;;;;;5062229;28;20413;-84
2023/04/17 10:54:14;;;;;;;12.50;10.80;;;;;;;;;;5079183;28;20473;-84
2023/04/17 10:56:48;;;;;;;13.47;10.40;;;;;;;;;;5078830;28;20402;-84
2023/04/17 10:59:18;;;;;;;13.00;10.90;;;;;;;;;;5079247;28;20382;-84
2023/04/17 11:01:47;;;;;;;14.60;11.20;;;;;;;;;;5078784;28;20413;-84
2023/04/17 11:04:20;;;;;;;13.50;11.60;;;;;;;;;;5079231;28;20414;-84
2023/04/17 11:06:46;;;;;;;13.10;11.17;;;;;;;;;;5079326;28;20381;-82
2023/04/17 11:09:13;;;;;;;13.00;10.27;;;;;;;;;;5097563;28;20410;-85
2023/04/17 11:11:40;;;;;;;12.37;10.50;;;;;;;;;;5097149;28;20414;-86
2023/04/17 11:14:10;;;;;;;10.50;9.37;;;;;;;;;;5079317;28;20414;-85
2023/04/17 11:16:43;;;;;;;9.40;8.47;;;;;;;;;;5097185;28;20444;-84
2023/04/17 11:19:09;;;;;;;11.17;8.70;;;;;;;;;;5079121;28;20422;-85
2023/04/17 11:21:39;;;;;;;12.33;10.50;;;;;;;;;;5078596;28;20451;-84
2023/04/17 11:24:05;;;;;;;10.40;9.30;;;;;;;;;;5078535;28;20415;-83
2023/04/17 11:26:31;;;;;;;14.13;11.60;;;;;;;;;;5062105;28;20421;-83
2023/04/17 11:28:59;;;;;;;13.60;9.97;;;;;;;;;;5078394;28;20831;-84
2023/04/17 11:31:28;;;;;;;11.00;9.93;;;;;;;;;;5078611;28;20402;-84
2023/04/17 11:33:54;;;;;;;17.40;11.23;;;;;;;;;;5078053;28;20414;-83
2023/04/17 11:36:21;;;;;;;11.27;10.17;;;;;;;;;;5078655;28;20473;-85
2023/04/17 11:38:47;;;;;;;15.03;10.70;;;;;;;;;;5061610;28;20722;-84
2023/04/17 11:41:13;;;;;;;11.00;9.07;;;;;;;;;;5078577;28;20479;-84
2023/04/17 11:43:39;;;;;;;12.77;10.57;;;;;;;;;;5078083;28;20451;-84
2023/04/17 11:46:06;;;;;;;10.53;9.43;;;;;;;;;;5078223;28;20384;-84
2023/04/17 11:48:32;;;;;;;10.73;8.67;;;;;;;;;;5096192;28;20801;-85
2023/04/17 11:51:00;;;;;;;14.43;10.20;;;;;;;;;;5061082;28;20504;-85
2023/04/17 11:53:26;;;;;;;10.63;8.83;;;;;;;;;;5078349;28;20426;-85
2023/04/17 11:56:14;;;;;;;10.37;9.47;;;;;;;;;;5060852;28;20997;-85
2023/04/17 11:58:47;;;;;;;12.20;10.50;;;;;;;;;;5096658;28;20415;-85
2023/04/17 12:01:14;;;;;;;12.10;9.60;;;;;;;;;;5078269;28;20509;-85
2023/04/17 12:03:40;;;;;;;12.43;8.73;;;;;;;;;;5095822;28;20823;-85
2023/04/17 12:06:06;;;;;;;12.13;9.90;;;;;;;;;;5077644;28;20396;-84
2023/04/17 12:08:52;;;;;;;9.60;8.30;;;;;;;;;;5096093;28;20809;-85
2023/04/17 12:11:44;;;;;;;9.20;8.40;;;;;;;;;;5078510;28;20429;-85
2023/04/17 12:14:10;;;;;;;10.50;9.50;;;;;;;;;;5091695;28;20422;-84
2023/04/17 12:16:37;;;;;;;12.27;9.13;;;;;;;;;;5077472;28;20451;-85
2023/04/17 12:19:03;;;;;;;10.60;9.00;;;;;;;;;;5096384;28;20441;-85
2023/04/17 12:21:29;;;;;;;9.23;7.93;;;;;;;;;;5096412;28;20407;-85
2023/04/17 12:23:55;;;;;;;11.57;7.50;;;;;;;;;;5082862;28;20406;-84
2023/04/17 12:26:23;;;;;;;7.63;6.50;;;;;;;;;;5097718;28;20406;-85
2023/04/17 12:28:49;;;;;;;8.57;7.73;;;;;;;;;;5079119;28;20396;-84
2023/04/17 12:31:15;;;;;;;7.73;7.00;;;;;;;;;;5079653;28;20426;-83
2023/04/17 12:33:41;;;;;;;9.17;6.77;;;;;;;;;;5078389;28;20799;-83
2023/04/17 12:36:08;;;;;;;8.97;7.97;;;;;;;;;;5060709;28;20594;-84
2023/04/17 12:38:34;;;;;;;8.80;7.90;;;;;;;;;;5078047;28;20392;-84
2023/04/17 12:41:00;;;;;;;9.80;6.60;;;;;;;;;;5079391;28;20569;-84
2023/04/17 12:43:26;;;;;;;8.00;6.60;;;;;;;;;;5095435;28;20421;-83
2023/04/17 12:45:52;;;;;;;8.50;7.70;;;;;;;;;;5094996;28;20402;-83
2023/04/17 12:48:19;;;;;;;6.97;6.27;;;;;;;;;;5077215;28;20409;-83
2023/04/17 12:50:45;;;;;;;6.63;6.03;;;;;;;;;;5095176;28;20473;-88
2023/04/17 12:53:12;;;;;;;12.30;7.47;;;;;;;;;;5076613;28;20930;-83
2023/04/17 12:55:40;;;;;;;7.80;7.10;;;;;;;;;;5076155;28;20461;-83
2023/04/17 12:58:06;;;;;;;8.50;7.50;;;;;;;;;;5076223;28;20432;-83
2023/04/17 13:00:32;;;;;;;8.17;7.40;;;;;;;;;;5076864;28;20415;-83
2023/04/17 13:02:59;;;;;;;7.43;6.73;;;;;;;;;;5076014;28;20414;-83
2023/04/17 13:05:25;;;;;;;7.30;6.10;;;;;;;;;;5076652;28;20829;-84
2023/04/17 13:07:51;;;;;;;7.97;7.27;;;;;;;;;;5075619;28;20752;-84
2023/04/17 13:10:17;;;;;;;7.40;6.23;;;;;;;;;;5060132;28;20768;-84
2023/04/17 13:12:43;;;;;;;7.60;6.13;;;;;;;;;;5076946;28;20417;-84
2023/04/17 13:15:12;;;;;;;7.57;5.63;;;;;;;;;;5059329;28;20466;-84
2023/04/17 13:17:38;;;;;;;9.93;6.10;;;;;;;;;;5060225;28;20456;-84
2023/04/17 13:20:04;;;;;;;6.27;5.77;;;;;;;;;;5094600;28;20500;-84
2023/04/17 13:22:32;;;;;;;7.57;6.33;;;;;;;;;;5094361;28;20538;-84
2023/04/17 13:25:01;;;;;;;7.17;6.33;;;;;;;;;;5059768;28;20909;-83
2023/04/17 13:27:27;;;;;;;5.80;5.20;;;;;;;;;;5076137;28;20422;-84
2023/04/17 13:29:54;;;;;;;7.97;5.90;;;;;;;;;;5059831;28;20415;-84
2023/04/17 13:32:20;;;;;;;6.80;4.97;;;;;;;;;;5076423;28;20406;-84
2023/04/17 13:37:50;;;;;;;7.03;6.30;;;;;;;;;;5093654;28;20398;-84
2023/04/17 13:40:16;;;;;;;5.63;5.13;;;;;;;;;;5076033;28;20456;-84
2023/04/17 13:42:42;;;;;;;6.10;5.10;;;;;;;;;;5059750;28;20410;-84
2023/04/17 13:45:08;;;;;;;6.40;5.53;;;;;;;;;;5059684;28;20501;-84
2023/04/17 13:47:34;;;;;;;6.10;5.50;;;;;;;;;;5075964;28;20467;-84
2023/04/17 13:50:00;;;;;;;7.50;5.30;;;;;;;;;;5076448;28;20518;-84
2023/04/17 13:52:26;;;;;;;7.40;5.73;;;;;;;;;;5075950;28;20774;-84
2023/04/17 13:54:52;;;;;;;6.33;5.73;;;;;;;;;;5059491;28;20465;-86
2023/04/17 13:57:18;;;;;;;7.17;6.47;;;;;;;;;;5059628;28;20400;-84
2023/04/17 13:59:46;;;;;;;7.13;6.53;;;;;;;;;;5059967;28;20442;-84
2023/04/17 14:02:12;;;;;;;7.47;6.20;;;;;;;;;;5076637;28;20429;-84
2023/04/17 14:04:38;;;;;;;7.57;6.60;;;;;;;;;;5059868;28;20419;-83
2023/04/17 14:07:05;;;;;;;8.20;6.20;;;;;;;;;;5059157;28;20487;-84
2023/04/17 14:09:31;;;;;;;10.20;6.17;;;;;;;;;;5075814;28;20389;-84
2023/04/17 14:11:57;;;;;;;7.40;6.40;;;;;;;;;;5094519;28;20418;-84
2023/04/17 14:14:23;;;;;;;7.60;6.00;;;;;;;;;;5075910;28;20473;-84
2023/04/17 14:16:49;;;;;;;10.37;6.80;;;;;;;;;;5076094;28;20418;-84
2023/04/17 14:19:16;;;;;;;8.93;5.40;;;;;;;;;;5077198;28;20377;-84
2023/04/17 14:21:42;;;;;;;6.97;6.27;;;;;;;;;;5098135;28;20407;-84
2023/04/17 14:24:08;;;;;;;6.87;5.50;;;;;;;;;;5079479;28;20407;-84